createdAt,value
2023-04-27T00:00:02.259Z,100137.00
2023-04-27T00:02:37.767Z,100140.13
2023-04-27T00:05:08.817Z,100140.97
2023-04-27T00:07:37.521Z,100146.72
2023-04-27T00:10:07.005Z,100145.88
2023-04-27T00:12:35.675Z,100145.97
2023-04-27T00:15:04.350Z,100141.38
2023-04-27T00:17:32.924Z,100135.41
2023-04-27T00:20:01.972Z,100134.81
2023-04-27T00:22:31.912Z,100139.69
2023-04-27T00:25:00.388Z,100134.19
2023-04-27T00:27:28.915Z,100134.25
2023-04-27T00:29:57.416Z,100135.09
2023-04-27T00:32:26.143Z,100138.38
2023-04-27T00:34:54.777Z,100131.84
2023-04-27T00:37:23.276Z,100123.06
2023-04-27T00:39:53.166Z,100111.16
2023-04-27T00:42:21.896Z,100103.72
2023-04-27T00:44:52.921Z,100115.41
2023-04-27T00:47:21.774Z,100114.75
2023-04-27T00:49:51.154Z,100127.41
2023-04-27T00:52:20.286Z,100132.19
2023-04-27T00:54:54.304Z,100135.81
2023-04-27T00:57:23.557Z,100134.97
2023-04-27T00:59:52.146Z,100144.56
2023-04-27T01:02:21.018Z,100142.16
2023-04-27T01:04:52.315Z,100145.69
2023-04-27T01:07:21.228Z,100146.19
2023-04-27T01:09:49.708Z,100144.16
2023-04-27T01:12:19.858Z,100149.97
2023-04-27T01:14:49.833Z,100154.63
2023-04-27T01:17:18.431Z,100162.66
2023-04-27T01:19:46.887Z,100162.66
2023-04-27T01:22:16.318Z,100167.84
2023-04-27T01:24:46.189Z,100171.78
2023-04-27T01:27:14.669Z,100171.88
2023-04-27T01:29:45.119Z,100174.44
2023-04-27T01:32:13.746Z,100163.03
2023-04-27T01:34:42.249Z,100166.66
2023-04-27T01:37:10.678Z,100169.47
2023-04-27T01:39:39.614Z,100180.56
2023-04-27T01:42:11.553Z,100171.44
2023-04-27T01:44:41.455Z,100168.88
2023-04-27T01:47:11.272Z,100163.50
2023-04-27T01:49:41.194Z,100162.78
2023-04-27T01:52:09.661Z,100160.38
2023-04-27T01:54:38.185Z,100156.75
2023-04-27T01:57:08.035Z,100147.72
2023-04-27T01:59:38.094Z,100155.03
2023-04-27T02:02:06.619Z,100157.44
2023-04-27T02:04:36.876Z,100152.34
2023-04-27T02:07:05.410Z,100151.50
2023-04-27T02:09:33.842Z,100148.56
2023-04-27T02:12:04.007Z,100147.47
2023-04-27T02:14:32.544Z,100151.97
2023-04-27T02:17:02.561Z,100148.31
2023-04-27T02:19:31.165Z,100155.50
2023-04-27T02:21:59.600Z,100161.81
2023-04-27T02:24:28.861Z,100156.75
2023-04-27T02:26:57.270Z,100170.81
2023-04-27T02:29:26.728Z,100164.28
2023-04-27T02:31:55.371Z,100173.63
2023-04-27T02:34:25.418Z,100171.91
2023-04-27T02:36:54.564Z,100169.13
2023-04-27T02:39:23.147Z,100183.22
2023-04-27T02:41:51.571Z,100177.03
2023-04-27T02:44:20.080Z,100181.50
2023-04-27T02:46:48.536Z,100184.91
2023-04-27T02:49:17.555Z,100192.34
2023-04-27T02:51:47.579Z,100196.72
2023-04-27T02:54:16.378Z,100181.78
2023-04-27T02:56:44.798Z,100181.03
2023-04-27T02:59:13.572Z,100192.47
2023-04-27T03:01:42.576Z,100186.16
2023-04-27T03:04:14.345Z,100195.03
2023-04-27T03:06:43.271Z,100193.91
2023-04-27T03:09:13.620Z,100200.38
2023-04-27T03:11:42.611Z,100196.84
2023-04-27T03:14:12.945Z,100198.53
2023-04-27T03:16:41.750Z,100199.53
2023-04-27T03:19:10.245Z,100198.66
2023-04-27T03:21:38.724Z,100204.38
2023-04-27T03:24:07.985Z,100204.25
2023-04-27T03:26:38.145Z,100200.50
2023-04-27T03:29:06.849Z,100201.59
2023-04-27T03:31:35.689Z,100204.88
2023-04-27T03:34:04.285Z,100219.34
2023-04-27T03:36:33.543Z,100218.25
2023-04-27T03:39:02.074Z,100221.16
2023-04-27T03:41:31.258Z,100220.94
2023-04-27T03:44:01.511Z,100221.88
2023-04-27T03:46:30.219Z,100226.38
2023-04-27T03:48:59.046Z,100227.97
2023-04-27T03:51:28.219Z,100229.16
2023-04-27T03:53:57.147Z,100228.84
2023-04-27T03:56:25.746Z,100232.63
2023-04-27T03:58:54.252Z,100225.81
2023-04-27T04:01:31.187Z,100223.88
2023-04-27T04:04:00.505Z,100228.13
2023-04-27T04:06:29.443Z,100225.28
2023-04-27T04:08:58.541Z,100237.56
2023-04-27T04:11:27.724Z,100238.06
2023-04-27T04:13:59.193Z,100240.84
2023-04-27T04:16:27.826Z,100233.56
2023-04-27T04:18:57.941Z,100240.47
2023-04-27T04:21:26.693Z,100238.13
2023-04-27T04:23:55.153Z,100246.16
2023-04-27T04:26:25.048Z,100246.03
2023-04-27T04:28:53.872Z,100247.41
2023-04-27T04:31:23.345Z,100249.56
2023-04-27T04:33:52.423Z,100252.25
2023-04-27T04:36:22.992Z,100252.25
2023-04-27T04:38:57.467Z,100261.97
2023-04-27T04:41:27.325Z,100265.25
2023-04-27T04:43:56.043Z,100267.81
2023-04-27T04:46:26.091Z,100268.19
2023-04-27T04:48:55.328Z,100275.34
2023-04-27T04:51:25.430Z,100277.78
2023-04-27T04:53:54.021Z,100275.81
2023-04-27T04:56:25.019Z,100275.34
2023-04-27T04:58:55.286Z,100272.78
2023-04-27T05:01:23.848Z,100283.38
2023-04-27T05:03:52.785Z,100285.44
2023-04-27T05:06:21.734Z,100301.84
2023-04-27T05:08:53.580Z,100293.13
2023-04-27T05:11:22.417Z,100286.91
2023-04-27T05:13:51.065Z,100296.50
2023-04-27T05:16:19.788Z,100295.53
2023-04-27T05:18:48.530Z,100293.59
2023-04-27T05:21:20.882Z,100299.91
2023-04-27T05:23:49.519Z,100296.38
2023-04-27T05:26:20.142Z,100303.06
2023-04-27T05:28:49.511Z,100294.06
2023-04-27T05:31:18.115Z,100300.75
2023-04-27T05:33:46.855Z,100310.13
2023-04-27T05:36:15.770Z,100310.00
2023-04-27T05:38:44.390Z,100305.72
2023-04-27T05:41:13.041Z,100311.34
2023-04-27T05:43:43.230Z,100312.06
2023-04-27T05:46:15.240Z,100314.47
2023-04-27T05:48:44.008Z,100317.38
2023-04-27T05:51:12.617Z,100307.66
2023-04-27T05:53:41.455Z,100311.19
2023-04-27T05:56:11.959Z,100316.84
2023-04-27T05:58:40.481Z,100315.63
2023-04-27T06:01:10.525Z,100320.03
2023-04-27T06:03:39.393Z,100320.03
2023-04-27T06:06:09.024Z,100317.69
2023-04-27T06:08:37.695Z,100310.38
2023-04-27T06:11:07.019Z,100316.84
2023-04-27T06:13:35.713Z,100315.34
2023-04-27T06:16:04.403Z,100308.59
2023-04-27T06:18:34.612Z,100320.63
2023-04-27T06:21:03.512Z,100322.47
2023-04-27T06:23:32.240Z,100328.22
2023-04-27T06:26:02.393Z,100322.63
2023-04-27T06:28:31.585Z,100325.06
2023-04-27T06:31:00.159Z,100326.88
2023-04-27T06:33:28.704Z,100327.72
2023-04-27T06:35:58.808Z,100328.41
2023-04-27T06:38:27.434Z,100336.44
2023-04-27T06:40:56.138Z,100332.91
2023-04-27T06:43:24.914Z,100333.25
2023-04-27T06:45:53.565Z,100333.97
2023-04-27T06:48:22.201Z,100337.06
2023-04-27T06:50:51.095Z,100326.78
2023-04-27T06:53:21.244Z,100331.25
2023-04-27T06:55:51.312Z,100342.19
2023-04-27T06:58:19.801Z,100343.00
2023-04-27T07:00:48.549Z,100347.75
2023-04-27T07:03:17.437Z,100347.53
2023-04-27T07:05:46.816Z,100349.66
2023-04-27T07:08:15.784Z,100356.00
2023-04-27T07:10:46.028Z,100353.94
2023-04-27T07:13:14.607Z,100353.44
2023-04-27T07:15:43.259Z,100360.03
2023-04-27T07:18:12.588Z,100364.19
2023-04-27T07:20:42.660Z,100377.63
2023-04-27T07:23:11.347Z,100379.97
2023-04-27T07:25:40.493Z,100369.91
2023-04-27T07:28:10.585Z,100377.69
2023-04-27T07:30:39.247Z,100374.50
2023-04-27T07:33:07.995Z,100382.69
2023-04-27T07:35:37.372Z,100379.81
2023-04-27T07:38:07.049Z,100392.75
2023-04-27T07:40:36.626Z,100389.78
2023-04-27T07:43:05.791Z,100388.66
2023-04-27T07:45:38.174Z,100388.50
2023-04-27T07:48:07.883Z,100388.66
2023-04-27T07:50:36.480Z,100385.31
2023-04-27T07:53:05.121Z,100387.13
2023-04-27T07:55:34.055Z,100388.00
2023-04-27T07:58:02.587Z,100384.66
2023-04-27T08:00:31.349Z,100396.34
2023-04-27T08:03:01.742Z,100393.41
2023-04-27T08:05:30.916Z,100401.66
2023-04-27T08:08:00.334Z,100404.59
2023-04-27T08:10:29.227Z,100407.28
2023-04-27T08:12:57.950Z,100411.38
2023-04-27T08:15:26.598Z,100411.13
2023-04-27T08:17:55.146Z,100415.19
2023-04-27T08:20:25.423Z,100414.94
2023-04-27T08:22:54.120Z,100409.75
2023-04-27T08:25:22.920Z,100410.59
2023-04-27T08:27:51.465Z,100405.69
2023-04-27T08:30:20.075Z,100409.94
2023-04-27T08:32:49.237Z,100415.16
2023-04-27T08:35:18.339Z,100419.97
2023-04-27T08:37:48.443Z,100426.91
2023-04-27T08:40:17.110Z,100435.97
2023-04-27T08:42:58.106Z,100427.19
2023-04-27T08:45:28.123Z,100426.50
2023-04-27T08:47:57.250Z,100426.34
2023-04-27T08:50:25.907Z,100424.06
2023-04-27T08:52:56.057Z,100432.59
2023-04-27T08:55:24.866Z,100427.75
2023-04-27T08:57:57.686Z,100427.44
2023-04-27T09:00:27.310Z,100426.59
2023-04-27T09:02:56.009Z,100432.28
2023-04-27T09:05:25.037Z,100429.44
2023-04-27T09:08:05.314Z,100434.50
2023-04-27T09:10:45.982Z,100431.81
2023-04-27T09:13:15.003Z,100440.16
2023-04-27T09:15:47.088Z,100445.19
2023-04-27T09:18:19.370Z,100451.22
2023-04-27T09:20:49.493Z,100451.88
2023-04-27T09:23:33.031Z,100452.94
2023-04-27T09:26:03.893Z,100452.94
2023-04-27T09:28:34.557Z,100452.50
2023-04-27T09:31:04.786Z,100462.25
2023-04-27T09:33:35.022Z,100461.00
2023-04-27T09:36:05.845Z,100451.56
2023-04-27T09:38:36.143Z,100451.72
2023-04-27T09:41:05.065Z,100449.78
2023-04-27T09:43:33.737Z,100453.75
2023-04-27T09:46:02.357Z,100453.91
2023-04-27T09:48:31.032Z,100450.38
2023-04-27T09:50:59.705Z,100451.38
2023-04-27T09:53:32.082Z,100451.22
2023-04-27T09:56:28.549Z,100462.56
2023-04-27T09:59:11.456Z,100450.66
2023-04-27T10:01:45.018Z,100456.84
2023-04-27T10:04:35.119Z,100471.00
2023-04-27T10:07:06.108Z,100466.03
2023-04-27T10:09:39.425Z,100457.84
2023-04-27T10:12:22.842Z,100463.78
2023-04-27T10:14:56.202Z,100464.47
2023-04-27T10:17:32.409Z,100466.19
2023-04-27T10:20:02.917Z,100469.88
2023-04-27T10:22:45.508Z,100460.13
2023-04-27T10:25:16.822Z,100467.59
2023-04-27T10:27:50.885Z,100466.31
2023-04-27T10:30:20.869Z,100469.56
2023-04-27T10:32:53.786Z,100473.06
2023-04-27T10:35:23.651Z,100479.78
2023-04-27T10:37:53.333Z,100475.38
2023-04-27T10:40:22.186Z,100476.78
2023-04-27T10:42:52.285Z,100473.53
2023-04-27T10:45:36.066Z,100478.50
2023-04-27T10:48:04.943Z,100474.28
2023-04-27T10:50:33.744Z,100481.13
2023-04-27T10:53:03.987Z,100472.69
2023-04-27T10:55:33.174Z,100478.53
2023-04-27T10:58:04.457Z,100475.44
2023-04-27T11:00:35.570Z,100470.66
2023-04-27T11:03:17.253Z,100477.41
2023-04-27T11:05:47.421Z,100482.78
2023-04-27T11:08:18.209Z,100490.84
2023-04-27T11:10:50.570Z,100497.91
2023-04-27T11:13:22.313Z,100494.22
2023-04-27T11:15:53.033Z,100507.25
2023-04-27T11:18:23.474Z,100500.47
2023-04-27T11:20:53.560Z,100493.09
2023-04-27T11:23:26.548Z,100497.63
2023-04-27T11:25:55.513Z,100498.94
2023-04-27T11:28:26.279Z,100506.44
2023-04-27T11:30:58.656Z,100506.50
2023-04-27T11:33:27.428Z,100507.19
2023-04-27T11:35:56.755Z,100520.78
2023-04-27T11:38:26.562Z,100519.31
2023-04-27T11:41:02.156Z,100518.06
2023-04-27T11:43:32.555Z,100524.03
2023-04-27T11:46:04.411Z,100527.31
2023-04-27T11:48:33.174Z,100524.63
2023-04-27T11:51:01.976Z,100528.41
2023-04-27T11:53:32.508Z,100531.53
2023-04-27T11:56:02.805Z,100538.63
2023-04-27T11:58:35.422Z,100532.22
2023-04-27T12:01:04.838Z,100531.13
2023-04-27T12:03:33.813Z,100540.84
2023-04-27T12:08:34.210Z,100551.78
2023-04-27T12:11:03.129Z,100551.53
2023-04-27T12:13:33.230Z,100545.25
2023-04-27T12:16:01.796Z,100551.09
2023-04-27T12:18:30.493Z,100544.81
2023-04-27T12:21:02.774Z,100546.97
2023-04-27T12:23:32.002Z,100545.25
2023-04-27T12:26:00.456Z,100549.25
2023-04-27T12:28:29.211Z,100544.59
2023-04-27T12:30:59.281Z,100550.06
2023-04-27T12:33:27.831Z,100558.94
2023-04-27T12:35:56.399Z,100557.13
2023-04-27T12:38:25.128Z,100558.25
2023-04-27T12:40:53.725Z,100561.47
2023-04-27T12:43:22.351Z,100563.84
2023-04-27T12:45:51.037Z,100570.78
2023-04-27T12:48:22.885Z,100571.94
2023-04-27T12:50:51.539Z,100565.00
2023-04-27T12:53:20.193Z,100574.50
2023-04-27T12:55:49.189Z,100571.84
2023-04-27T12:58:17.696Z,100567.66
2023-04-27T13:00:46.660Z,100571.75
2023-04-27T13:03:15.341Z,100569.06
2023-04-27T13:05:46.551Z,100570.19
2023-04-27T13:08:14.845Z,100573.31
2023-04-27T13:10:43.399Z,100578.13
2023-04-27T13:13:11.990Z,100581.97
2023-04-27T13:15:40.680Z,100579.53
2023-04-27T13:18:09.300Z,100586.06
2023-04-27T13:20:38.130Z,100581.66
2023-04-27T13:23:09.291Z,100581.81
2023-04-27T13:25:37.757Z,100588.91
2023-04-27T13:28:06.661Z,100589.19
2023-04-27T13:30:35.569Z,100588.72
2023-04-27T13:33:18.319Z,100591.41
2023-04-27T13:35:50.083Z,100594.09
2023-04-27T13:38:20.549Z,100599.34
2023-04-27T13:40:49.065Z,100600.22
2023-04-27T13:43:17.689Z,100597.97
2023-04-27T13:45:46.733Z,100598.22
2023-04-27T13:48:15.282Z,100596.78
2023-04-27T13:50:43.987Z,100600.63
2023-04-27T13:53:12.548Z,100613.47
2023-04-27T13:55:42.584Z,100608.91
2023-04-27T13:58:12.157Z,100610.63
2023-04-27T14:00:40.768Z,100611.34
2023-04-27T14:03:09.560Z,100606.66
2023-04-27T14:05:38.247Z,100607.81
2023-04-27T14:08:07.342Z,100607.81
2023-04-27T14:10:37.705Z,100611.78
2023-04-27T14:13:07.890Z,100614.03
2023-04-27T14:15:37.538Z,100610.94
2023-04-27T14:18:07.925Z,100616.59
2023-04-27T14:20:36.980Z,100613.56
2023-04-27T14:23:07.154Z,100621.34
2023-04-27T14:25:35.834Z,100613.25
2023-04-27T14:28:06.592Z,100616.38
2023-04-27T14:30:36.898Z,100610.41
2023-04-27T14:33:05.673Z,100615.09
2023-04-27T14:35:37.196Z,100611.81
2023-04-27T14:38:05.784Z,100602.34
2023-04-27T14:40:34.415Z,100614.09
2023-04-27T14:43:03.035Z,100609.59
2023-04-27T14:45:43.551Z,100610.00
2023-04-27T14:48:20.692Z,100620.91
2023-04-27T14:50:49.253Z,100611.56
2023-04-27T14:53:17.898Z,100615.25
2023-04-27T14:55:46.904Z,100622.06
2023-04-27T14:58:15.652Z,100613.56
2023-04-27T15:00:44.312Z,100611.69
2023-04-27T15:03:13.205Z,100612.41
2023-04-27T15:05:43.490Z,100622.16
2023-04-27T15:08:11.993Z,100626.88
2023-04-27T15:10:40.607Z,100619.34
2023-04-27T15:13:09.212Z,100622.91
2023-04-27T15:15:37.834Z,100624.88
2023-04-27T15:18:06.753Z,100627.69
2023-04-27T15:20:35.330Z,100633.34
2023-04-27T15:23:05.811Z,100638.91
2023-04-27T15:25:34.372Z,100635.50
2023-04-27T15:28:03.900Z,100632.53
2023-04-27T15:30:32.644Z,100628.28
2023-04-27T15:33:01.267Z,100636.91
2023-04-27T15:35:29.896Z,100639.34
2023-04-27T15:37:58.428Z,100639.63
2023-04-27T15:40:28.498Z,100636.78
2023-04-27T15:42:57.149Z,100635.91
2023-04-27T15:45:25.747Z,100638.13
2023-04-27T15:47:54.414Z,100641.88
2023-04-27T15:50:23.233Z,100649.66
2023-04-27T15:52:52.886Z,100647.13
2023-04-27T15:55:21.669Z,100645.84
2023-04-27T15:57:51.734Z,100648.69
2023-04-27T16:00:22.681Z,100655.19
2023-04-27T16:02:51.188Z,100652.38
2023-04-27T16:05:19.832Z,100656.81
2023-04-27T16:07:48.503Z,100654.03
2023-04-27T16:10:17.023Z,100657.75
2023-04-27T16:12:45.663Z,100658.28
2023-04-27T16:15:16.175Z,100657.59
2023-04-27T16:17:44.890Z,100655.03
2023-04-27T16:20:13.906Z,100666.50
2023-04-27T16:22:42.511Z,100663.47
2023-04-27T16:25:11.927Z,100662.06
2023-04-27T16:27:41.103Z,100662.22
2023-04-27T16:30:10.612Z,100661.47
2023-04-27T16:32:40.706Z,100664.13
2023-04-27T16:35:10.071Z,100662.97
2023-04-27T16:37:38.642Z,100675.94
2023-04-27T16:40:08.798Z,100670.78
2023-04-27T16:42:37.344Z,100664.84
2023-04-27T16:45:09.179Z,100676.66
2023-04-27T16:47:40.679Z,100673.03
2023-04-27T16:50:09.652Z,100675.63
2023-04-27T16:52:38.417Z,100674.56
2023-04-27T16:55:08.511Z,100680.34
2023-04-27T16:57:37.213Z,100680.25
2023-04-27T17:00:09.791Z,100690.94
2023-04-27T17:02:39.486Z,100692.81
2023-04-27T17:05:12.232Z,100690.81
2023-04-27T17:07:40.712Z,100692.91
2023-04-27T17:10:10.328Z,100685.09
2023-04-27T17:12:39.458Z,100688.88
2023-04-27T17:15:09.262Z,100683.78
2023-04-27T17:17:38.137Z,100689.41
2023-04-27T17:20:09.944Z,100692.56
2023-04-27T17:22:40.148Z,100698.44
2023-04-27T17:25:09.925Z,100691.84
2023-04-27T17:27:38.853Z,100698.19
2023-04-27T17:30:09.684Z,100700.41
2023-04-27T17:32:38.499Z,100696.50
2023-04-27T17:35:07.849Z,100701.28
2023-04-27T17:37:36.521Z,100698.38
2023-04-27T17:40:09.371Z,100699.69
2023-04-27T17:42:37.988Z,100699.47
2023-04-27T17:45:07.632Z,100713.38
2023-04-27T17:47:36.682Z,100710.84
2023-04-27T17:50:05.893Z,100716.19
2023-04-27T17:52:34.676Z,100719.50
2023-04-27T17:55:03.282Z,100720.88
2023-04-27T17:57:33.852Z,100725.50
2023-04-27T18:00:02.358Z,100719.22
2023-04-27T18:02:38.519Z,100722.88
2023-04-27T18:05:07.753Z,100714.31
2023-04-27T18:07:37.693Z,100717.38
2023-04-27T18:10:07.717Z,100719.94
2023-04-27T18:12:37.744Z,100723.84
2023-04-27T18:15:09.697Z,100729.16
2023-04-27T18:17:38.749Z,100737.44
2023-04-27T18:20:10.511Z,100735.72
2023-04-27T18:22:40.410Z,100741.59
2023-04-27T18:25:10.895Z,100738.03
2023-04-27T18:27:41.092Z,100744.00
2023-04-27T18:30:10.096Z,100742.31
2023-04-27T18:32:39.134Z,100736.50
2023-04-27T18:35:08.497Z,100747.09
2023-04-27T18:37:37.053Z,100741.38
2023-04-27T18:40:06.397Z,100749.44
2023-04-27T18:42:35.029Z,100752.97
2023-04-27T18:45:05.749Z,100748.22
2023-04-27T18:47:34.373Z,100756.19
2023-04-27T18:50:02.952Z,100756.19
2023-04-27T18:52:31.629Z,100754.50
2023-04-27T18:55:00.232Z,100756.19
2023-04-27T18:57:28.877Z,100756.38
2023-04-27T18:59:57.543Z,100754.06
2023-04-27T19:02:27.737Z,100754.91
2023-04-27T19:05:11.196Z,100763.13
2023-04-27T19:07:41.490Z,100764.59
2023-04-27T19:10:11.368Z,100765.06
2023-04-27T19:12:40.138Z,100760.44
2023-04-27T19:15:09.222Z,100762.63
2023-04-27T19:17:40.378Z,100779.97
2023-04-27T19:20:09.710Z,100781.69
2023-04-27T19:22:38.544Z,100776.16
2023-04-27T19:25:08.094Z,100780.22
2023-04-27T19:27:36.879Z,100783.97
2023-04-27T19:30:06.300Z,100777.59
2023-04-27T19:32:35.378Z,100783.59
2023-04-27T19:35:05.648Z,100780.84
2023-04-27T19:37:34.353Z,100786.94
2023-04-27T19:40:02.966Z,100780.19
2023-04-27T19:42:31.849Z,100787.88
2023-04-27T19:45:01.116Z,100784.84
2023-04-27T19:47:29.914Z,100791.06
2023-04-27T19:49:59.990Z,100791.34
2023-04-27T19:52:30.132Z,100792.44
2023-04-27T19:55:00.148Z,100790.38
2023-04-27T19:57:28.735Z,100796.63
2023-04-27T19:59:57.372Z,100792.28
2023-04-27T20:02:26.025Z,100798.03
2023-04-27T20:04:54.864Z,100798.66
2023-04-27T20:07:23.615Z,100798.44
2023-04-27T20:09:53.527Z,100810.53
2023-04-27T20:12:43.528Z,100809.19
2023-04-27T20:15:12.170Z,100814.94
2023-04-27T20:17:40.849Z,100806.63
2023-04-27T20:20:11.184Z,100808.91
2023-04-27T20:22:40.371Z,100810.06
2023-04-27T20:25:10.981Z,100812.09
2023-04-27T20:27:40.120Z,100821.19
2023-04-27T20:30:09.853Z,100822.44
2023-04-27T20:32:39.703Z,100826.41
2023-04-27T20:35:11.528Z,100828.75
2023-04-27T20:37:42.069Z,100829.72
2023-04-27T20:40:14.724Z,100835.16
2023-04-27T20:42:43.757Z,100827.69
2023-04-27T20:45:12.886Z,100828.13
2023-04-27T20:47:42.160Z,100824.81
2023-04-27T20:50:11.164Z,100823.66
2023-04-27T20:52:39.686Z,100816.63
2023-04-27T20:55:08.464Z,100818.97
2023-04-27T20:57:38.347Z,100815.97
2023-04-27T21:00:09.954Z,100820.66
2023-04-27T21:02:38.776Z,100826.13
2023-04-27T21:05:07.384Z,100824.09
2023-04-27T21:07:35.867Z,100826.22
2023-04-27T21:10:06.779Z,100823.88
2023-04-27T21:12:35.411Z,100832.88
2023-04-27T21:15:06.053Z,100833.72
2023-04-27T21:17:34.603Z,100828.69
2023-04-27T21:20:03.097Z,100837.31
2023-04-27T21:22:31.634Z,100839.28
2023-04-27T21:25:00.001Z,100830.94
2023-04-27T21:27:29.423Z,100837.56
2023-04-27T21:29:57.994Z,100837.38
2023-04-27T21:32:28.439Z,100844.03
2023-04-27T21:34:57.050Z,100850.31
2023-04-27T21:37:25.485Z,100851.19
2023-04-27T21:39:54.027Z,100852.88
2023-04-27T21:42:22.528Z,100856.41
2023-04-27T21:44:51.042Z,100853.44
2023-04-27T21:47:19.723Z,100853.84
2023-04-27T21:49:51.191Z,100853.00
2023-04-27T21:52:21.707Z,100852.53
2023-04-27T21:54:50.171Z,100859.31
2023-04-27T21:57:19.996Z,100863.50
2023-04-27T21:59:48.648Z,100863.91
2023-04-27T22:02:17.223Z,100865.31
2023-04-27T22:04:45.977Z,100857.97
2023-04-27T22:07:16.103Z,100861.00
2023-04-27T22:09:44.806Z,100859.41
2023-04-27T22:12:13.290Z,100864.41
2023-04-27T22:14:43.046Z,100871.34
2023-04-27T22:17:12.698Z,100869.56
2023-04-27T22:19:41.669Z,100858.88
2023-04-27T22:22:10.619Z,100855.50
2023-04-27T22:24:40.456Z,100853.91
2023-04-27T22:27:11.664Z,100853.06
2023-04-27T22:29:40.257Z,100855.41
2023-04-27T22:32:08.893Z,100860.28
2023-04-27T22:34:38.313Z,100862.63
2023-04-27T22:37:07.201Z,100867.06
2023-04-27T22:39:35.949Z,100853.72
2023-04-27T22:42:05.890Z,100860.78
2023-04-27T22:44:34.429Z,100865.38
2023-04-27T22:47:04.579Z,100864.72
2023-04-27T22:49:34.524Z,100856.34
2023-04-27T22:52:03.886Z,100863.03
2023-04-27T22:54:32.488Z,100865.06
2023-04-27T22:57:00.970Z,100859.38
2023-04-27T22:59:31.035Z,100848.78
2023-04-27T23:01:59.706Z,100846.13
2023-04-27T23:04:29.358Z,100843.75
2023-04-27T23:06:58.215Z,100849.00
2023-04-27T23:09:27.136Z,100854.25
2023-04-27T23:11:57.987Z,100862.63
2023-04-27T23:14:27.064Z,100859.13
2023-04-27T23:16:57.084Z,100862.06
2023-04-27T23:19:25.759Z,100864.25
2023-04-27T23:21:54.259Z,100861.50
2023-04-27T23:24:22.872Z,100862.66
2023-04-27T23:26:51.437Z,100860.28
2023-04-27T23:29:19.991Z,100864.19
2023-04-27T23:31:48.573Z,100866.94
2023-04-27T23:34:21.604Z,100867.03
2023-04-27T23:36:50.178Z,100862.84
2023-04-27T23:39:18.648Z,100863.81
2023-04-27T23:41:47.142Z,100859.63
2023-04-27T23:44:15.867Z,100859.97
2023-04-27T23:46:44.529Z,100864.50
2023-04-27T23:49:13.109Z,100867.03
2023-04-27T23:51:43.136Z,100865.84
2023-04-27T23:54:11.649Z,100872.19
2023-04-27T23:56:40.183Z,100869.22
2023-04-27T23:59:08.824Z,100868.72
